Time;durP1;ratioP1;P1;durP2;ratioP2;P2;SDS_P1;SDS_P2;PMS_P1;PMS_P2;Temp;Humidity;BMP_temperature;BMP_pressure;BME280_temperature;BME280_humidity;BME280_pressure;Samples;Min_cycle;Max_cycle;Signal;HPM_P1;HPM_P2
2021/03/05 00:00:09;;;;;;;9.80;4.80;;;6.10;85.40;;;;;;5093174;28;20938;-72
2021/03/05 00:02:36;;;;;;;14.77;5.10;;;6.00;85.80;;;;;;5093775;28;20443;-72
2021/03/05 00:05:04;;;;;;;9.67;4.30;;;6.00;85.50;;;;;;5093306;28;20452;-72
2021/03/05 00:07:30;;;;;;;10.10;5.43;;;6.00;85.40;;;;;;5094132;28;20541;-72
2021/03/05 00:09:56;;;;;;;11.43;5.40;;;6.00;85.90;;;;;;5093321;28;20954;-72
2021/03/05 00:12:22;;;;;;;12.07;5.00;;;6.00;86.80;;;;;;5093304;28;20454;-72
2021/03/05 00:14:49;;;;;;;14.03;4.33;;;6.00;86.90;;;;;;5093312;28;20496;-72
2021/03/05 00:17:16;;;;;;;12.47;4.83;;;6.00;87.00;;;;;;5092894;28;20993;-72
2021/03/05 00:19:42;;;;;;;11.63;5.10;;;6.00;86.80;;;;;;5093281;28;20444;-72
2021/03/05 00:22:08;;;;;;;13.27;4.80;;;6.00;87.00;;;;;;5093233;28;20451;-72
2021/03/05 00:24:35;;;;;;;10.87;4.60;;;6.10;86.80;;;;;;5093193;28;20432;-72
2021/03/05 00:27:02;;;;;;;8.67;5.27;;;6.10;86.60;;;;;;5093126;28;20460;-72
2021/03/05 00:29:29;;;;;;;12.47;5.77;;;6.10;86.30;;;;;;5093085;28;20472;-72
2021/03/05 00:31:55;;;;;;;10.37;5.23;;;6.10;86.00;;;;;;5093111;28;20455;-72
2021/03/05 00:34:22;;;;;;;9.10;4.70;;;6.10;86.20;;;;;;5093952;28;20440;-72
2021/03/05 00:36:48;;;;;;;11.00;4.10;;;6.10;86.40;;;;;;5093004;28;20470;-72
2021/03/05 00:39:15;;;;;;;16.13;5.10;;;6.10;85.40;;;;;;5093303;28;20439;-72
2021/03/05 00:41:41;;;;;;;14.10;5.67;;;6.10;85.70;;;;;;5093075;28;20475;-72
2021/03/05 00:44:08;;;;;;;11.03;5.40;;;6.10;85.70;;;;;;5092736;28;20922;-72
2021/03/05 00:46:34;;;;;;;10.03;4.53;;;6.10;85.90;;;;;;5094623;28;20467;-72
2021/03/05 00:49:01;;;;;;;10.57;4.50;;;6.10;85.30;;;;;;5096318;28;20476;-72
2021/03/05 00:51:28;;;;;;;11.37;4.80;;;6.10;85.80;;;;;;5096695;28;20436;-72
2021/03/05 00:53:54;;;;;;;11.70;4.40;;;6.20;86.20;;;;;;5096340;28;20436;-72
2021/03/05 00:56:20;;;;;;;10.47;4.30;;;6.10;85.40;;;;;;5096699;28;20475;-72
2021/03/05 00:58:46;;;;;;;18.80;4.43;;;6.10;85.40;;;;;;5096314;28;20957;-72
2021/03/05 01:01:13;;;;;;;11.57;5.03;;;6.10;85.30;;;;;;5096747;28;20447;-72
2021/03/05 01:03:39;;;;;;;15.87;4.57;;;6.10;85.10;;;;;;5096868;28;20443;-72
2021/03/05 01:06:05;;;;;;;11.90;4.77;;;6.10;84.60;;;;;;5096560;28;20472;-72
2021/03/05 01:08:33;;;;;;;10.90;5.17;;;6.00;84.40;;;;;;5096364;28;20483;-72
2021/03/05 01:10:59;;;;;;;9.37;4.60;;;6.00;85.00;;;;;;5096068;28;20942;-72
2021/03/05 01:13:25;;;;;;;13.50;4.90;;;6.00;85.30;;;;;;5096326;28;20448;-72
2021/03/05 01:15:51;;;;;;;13.43;5.10;;;6.00;85.20;;;;;;5096713;28;20463;-72
2021/03/05 01:18:18;;;;;;;11.13;6.00;;;6.00;85.40;;;;;;5096243;28;20446;-72
2021/03/05 01:20:44;;;;;;;15.57;5.17;;;5.90;85.20;;;;;;5096283;28;20505;-72
2021/03/05 01:23:12;;;;;;;13.50;5.97;;;5.90;84.70;;;;;;5096162;28;20497;-72
2021/03/05 01:25:39;;;;;;;19.40;4.77;;;5.90;84.80;;;;;;5096241;28;20471;-72
2021/03/05 01:28:05;;;;;;;17.47;5.37;;;5.90;85.10;;;;;;5096137;28;20478;-72
2021/03/05 01:30:31;;;;;;;16.27;5.30;;;5.90;85.40;;;;;;5095934;28;20444;-72
2021/03/05 01:32:58;;;;;;;22.17;6.10;;;5.90;85.70;;;;;;5095873;28;20463;-72
2021/03/05 01:35:26;;;;;;;11.40;5.90;;;5.90;85.70;;;;;;5095879;28;20447;-72
2021/03/05 01:37:52;;;;;;;12.40;4.27;;;5.90;85.70;;;;;;5095813;28;20481;-72
2021/03/05 01:40:23;;;;;;;12.43;4.60;;;5.90;85.50;;;;;;5095451;28;20843;-72
2021/03/05 01:42:50;;;;;;;16.40;4.90;;;5.90;85.70;;;;;;5095773;28;20428;-72
2021/03/05 01:45:21;;;;;;;17.40;4.43;;;5.90;86.10;;;;;;5095598;28;20450;-72
2021/03/05 01:47:51;;;;;;;15.80;5.00;;;5.80;85.80;;;;;;5095562;28;20468;-72
2021/03/05 01:50:21;;;;;;;11.47;5.27;;;5.80;86.10;;;;;;5095617;28;20425;-72
2021/03/05 01:52:48;;;;;;;15.23;5.47;;;5.80;86.40;;;;;;5095247;28;20432;-72
2021/03/05 01:55:15;;;;;;;19.50;5.20;;;5.80;86.30;;;;;;5095347;28;20444;-71
2021/03/05 01:57:42;;;;;;;16.83;7.10;;;5.70;86.90;;;;;;5094502;28;20451;-71
2021/03/05 02:00:12;;;;;;;16.57;5.90;;;5.70;87.70;;;;;;5095399;28;20436;-71
2021/03/05 02:02:38;;;;;;;16.07;6.27;;;5.60;88.50;;;;;;5095277;28;20452;-71
2021/03/05 02:05:05;;;;;;;12.87;6.60;;;5.60;89.00;;;;;;5095041;28;20463;-71
2021/03/05 02:07:31;;;;;;;17.57;6.20;;;5.60;89.50;;;;;;5095113;28;20474;-71
2021/03/05 02:09:57;;;;;;;20.30;6.30;;;5.50;90.10;;;;;;5095148;28;20493;-71
2021/03/05 02:12:24;;;;;;;12.73;5.97;;;5.50;90.40;;;;;;5095179;28;20432;-71
2021/03/05 02:14:50;;;;;;;16.53;6.97;;;5.60;90.50;;;;;;5095062;28;20451;-71
2021/03/05 02:17:24;;;;;;;14.80;6.60;;;5.60;90.40;;;;;;5094993;28;20471;-71
2021/03/05 02:20:07;;;;;;;22.13;6.83;;;5.60;90.60;;;;;;5095049;28;20432;-71
2021/03/05 02:23:11;;;;;;;18.17;6.73;;;5.70;90.40;;;;;;5094810;28;20917;-71
2021/03/05 02:25:57;;;;;;;17.60;7.10;;;5.70;90.40;;;;;;5094787;28;20472;-71
2021/03/05 02:28:43;;;;;;;18.60;7.10;;;5.70;90.30;;;;;;5094816;28;20459;-71
2021/03/05 02:31:36;;;;;;;15.97;7.30;;;5.60;90.40;;;;;;5094768;28;20424;-71
2021/03/05 02:34:06;;;;;;;20.73;7.77;;;5.70;90.60;;;;;;5091873;28;20496;-71
2021/03/05 02:36:38;;;;;;;10.20;6.37;;;5.70;90.50;;;;;;5094346;28;20460;-71
2021/03/05 02:39:10;;;;;;;17.80;8.47;;;5.60;90.50;;;;;;5094658;28;20470;-71
2021/03/05 02:41:40;;;;;;;12.40;6.70;;;5.60;90.70;;;;;;5094646;28;20423;-71
2021/03/05 02:44:09;;;;;;;17.27;7.50;;;5.60;90.90;;;;;;5094526;28;20447;-71
2021/03/05 02:46:39;;;;;;;15.73;7.50;;;5.70;91.00;;;;;;5094427;28;20463;-71
2021/03/05 02:49:07;;;;;;;15.00;7.60;;;5.70;91.10;;;;;;5094351;28;20480;-71
2021/03/05 02:51:35;;;;;;;23.67;8.33;;;5.70;91.10;;;;;;5094097;28;20945;-71
2021/03/05 02:54:03;;;;;;;21.40;7.80;;;5.70;91.10;;;;;;5094367;28;20439;-71
2021/03/05 02:56:32;;;;;;;13.83;8.27;;;5.70;91.20;;;;;;5094251;28;20460;-71
2021/03/05 02:59:00;;;;;;;17.03;9.00;;;5.80;91.30;;;;;;5094269;28;20444;-71
2021/03/05 03:01:27;;;;;;;20.90;8.43;;;5.70;91.30;;;;;;5094246;28;20455;-71
2021/03/05 03:03:56;;;;;;;16.50;8.57;;;5.80;91.30;;;;;;5094138;28;20494;-72
2021/03/05 03:06:24;;;;;;;20.80;8.60;;;5.80;91.40;;;;;;5093904;28;20475;-71
2021/03/05 03:08:52;;;;;;;20.00;9.90;;;5.90;91.30;;;;;;5093915;28;20487;-72
2021/03/05 03:11:20;;;;;;;26.43;9.43;;;6.00;91.30;;;;;;5093702;28;20813;-72
2021/03/05 03:13:47;;;;;;;17.97;9.77;;;5.90;91.10;;;;;;5094034;28;20439;-72
2021/03/05 03:16:16;;;;;;;15.57;9.90;;;6.00;91.20;;;;;;5093928;28;20464;-72
2021/03/05 03:18:44;;;;;;;18.83;9.83;;;6.00;91.30;;;;;;5093939;28;20440;-71
2021/03/05 03:21:11;;;;;;;21.60;11.87;;;6.00;91.40;;;;;;5093922;28;20444;-71
2021/03/05 03:23:39;;;;;;;17.47;9.50;;;6.10;91.20;;;;;;5093881;28;20818;-72
2021/03/05 03:26:06;;;;;;;20.17;12.07;;;6.10;91.20;;;;;;5093720;28;20467;-72
2021/03/05 03:28:32;;;;;;;24.43;11.33;;;6.10;91.20;;;;;;5093686;28;20549;-72
2021/03/05 03:30:59;;;;;;;21.80;12.00;;;6.20;91.10;;;;;;5093773;28;20444;-72
2021/03/05 03:33:25;;;;;;;17.60;11.70;;;6.20;91.10;;;;;;5093944;28;20444;-71
2021/03/05 03:35:51;;;;;;;21.50;12.10;;;6.20;91.00;;;;;;5093631;28;20463;-71
2021/03/05 03:38:20;;;;;;;22.03;12.70;;;6.30;91.10;;;;;;5093649;28;20435;-71
2021/03/05 03:40:46;;;;;;;20.20;12.43;;;6.20;91.00;;;;;;5093691;28;20805;-71
2021/03/05 03:43:13;;;;;;;27.23;14.47;;;6.30;91.00;;;;;;5093349;28;20930;-72
2021/03/05 03:45:40;;;;;;;23.23;13.00;;;6.30;90.90;;;;;;5093507;28;20463;-72
2021/03/05 03:48:09;;;;;;;26.90;13.47;;;6.30;91.00;;;;;;5093544;28;20475;-71
2021/03/05 03:50:39;;;;;;;20.90;13.83;;;6.30;90.90;;;;;;5093630;28;20497;-71
2021/03/05 03:53:11;;;;;;;23.67;14.73;;;6.40;90.90;;;;;;5093600;28;20439;-71
2021/03/05 03:55:38;;;;;;;24.83;14.40;;;6.40;90.70;;;;;;5093504;28;20525;-71
2021/03/05 03:58:06;;;;;;;23.13;14.30;;;6.40;90.70;;;;;;5093501;28;20458;-72
2021/03/05 04:00:34;;;;;;;20.90;14.63;;;6.40;90.60;;;;;;5093460;28;20486;-71
2021/03/05 04:03:04;;;;;;;21.27;14.60;;;6.40;90.40;;;;;;5094226;28;20493;-72
2021/03/05 04:05:33;;;;;;;23.87;15.60;;;6.40;90.40;;;;;;5093137;28;20483;-72
2021/03/05 04:08:00;;;;;;;21.33;15.03;;;6.40;90.30;;;;;;5093291;28;20487;-72
2021/03/05 04:10:27;;;;;;;19.03;15.00;;;6.40;90.30;;;;;;5093370;28;20447;-72
2021/03/05 04:12:56;;;;;;;21.47;15.63;;;6.40;90.20;;;;;;5093342;28;20446;-71
2021/03/05 04:15:24;;;;;;;20.53;14.97;;;6.40;90.00;;;;;;5093291;28;20448;-72
2021/03/05 04:17:51;;;;;;;22.67;13.83;;;6.30;89.80;;;;;;5093295;28;20475;-71
2021/03/05 04:20:21;;;;;;;20.97;13.60;;;6.30;89.80;;;;;;5093280;28;20450;-71
2021/03/05 04:22:48;;;;;;;16.80;13.37;;;6.30;89.20;;;;;;5096780;28;20796;-71
2021/03/05 04:25:16;;;;;;;18.47;13.50;;;6.20;88.70;;;;;;5097138;28;20428;-71
2021/03/05 04:27:42;;;;;;;15.90;11.87;;;6.30;88.80;;;;;;5096750;28;20908;-71
2021/03/05 04:30:12;;;;;;;18.23;13.73;;;6.20;88.20;;;;;;5097105;28;20439;-72
2021/03/05 04:32:40;;;;;;;20.20;12.27;;;6.20;87.90;;;;;;5097805;28;20466;-71
2021/03/05 04:35:08;;;;;;;13.50;11.43;;;6.20;88.00;;;;;;5097058;28;20447;-71
2021/03/05 04:37:34;;;;;;;15.20;12.90;;;6.10;87.10;;;;;;5096935;28;20494;-71
2021/03/05 04:40:01;;;;;;;14.80;12.63;;;6.00;87.40;;;;;;5096969;28;20451;-71
2021/03/05 04:42:27;;;;;;;13.90;11.00;;;6.00;87.80;;;;;;5096866;28;20497;-71
2021/03/05 04:44:53;;;;;;;15.33;11.60;;;6.00;87.70;;;;;;5096500;28;20446;-71
2021/03/05 04:47:20;;;;;;;14.87;12.07;;;6.10;87.30;;;;;;5096705;28;20463;-71
2021/03/05 04:49:46;;;;;;;15.57;12.20;;;6.00;87.10;;;;;;5096648;28;20479;-71
2021/03/05 04:52:13;;;;;;;15.80;12.13;;;6.00;87.10;;;;;;5096422;28;20934;-72
2021/03/05 04:54:39;;;;;;;13.73;11.43;;;6.00;87.10;;;;;;5096647;28;20451;-71
2021/03/05 04:57:05;;;;;;;17.83;12.73;;;6.10;86.80;;;;;;5096272;28;20467;-72
2021/03/05 04:59:32;;;;;;;15.10;12.10;;;6.10;86.50;;;;;;5097138;28;20439;-72
2021/03/05 05:01:58;;;;;;;14.73;11.30;;;6.00;85.80;;;;;;5096169;28;20946;-71
2021/03/05 05:04:25;;;;;;;13.83;10.50;;;6.00;86.10;;;;;;5096436;28;20443;-71
2021/03/05 05:06:51;;;;;;;11.03;9.07;;;6.10;86.10;;;;;;5095915;28;20878;-72
2021/03/05 05:09:18;;;;;;;11.13;9.87;;;6.10;85.70;;;;;;5096067;28;21016;-71
2021/03/05 05:11:44;;;;;;;11.37;9.60;;;6.10;85.20;;;;;;5096394;28;20866;-72
2021/03/05 05:14:10;;;;;;;10.10;8.73;;;6.10;83.90;;;;;;5096376;28;20444;-72
2021/03/05 05:16:37;;;;;;;10.90;8.90;;;6.00;84.00;;;;;;5096046;28;20468;-72
2021/03/05 05:19:03;;;;;;;10.63;8.50;;;6.00;84.20;;;;;;5096277;28;20821;-71
2021/03/05 05:21:30;;;;;;;10.00;8.03;;;6.00;84.30;;;;;;5096146;28;20447;-72
2021/03/05 05:23:57;;;;;;;9.30;8.30;;;6.00;84.50;;;;;;5095794;28;20938;-72
2021/03/05 05:26:23;;;;;;;9.63;7.93;;;6.00;84.20;;;;;;5095704;28;20460;-71
2021/03/05 05:28:49;;;;;;;8.30;6.77;;;5.90;82.90;;;;;;5095959;28;20471;-71
2021/03/05 05:31:15;;;;;;;9.90;7.50;;;5.80;81.70;;;;;;5095938;28;20444;-72
2021/03/05 05:33:42;;;;;;;9.50;8.17;;;5.80;81.90;;;;;;5094757;28;20498;-72
2021/03/05 05:36:08;;;;;;;10.57;7.30;;;5.70;82.10;;;;;;5096015;28;20466;-72
2021/03/05 05:38:35;;;;;;;10.00;6.77;;;5.70;81.90;;;;;;5095828;28;20440;-71
2021/03/05 05:41:02;;;;;;;10.57;6.43;;;5.70;82.40;;;;;;5095814;28;20455;-72
2021/03/05 05:43:31;;;;;;;10.87;7.40;;;5.60;82.50;;;;;;5095730;28;20440;-72
2021/03/05 05:46:02;;;;;;;8.20;6.40;;;5.70;82.20;;;;;;5095570;28;20472;-71
2021/03/05 05:48:28;;;;;;;7.80;6.57;;;5.60;81.40;;;;;;5095576;28;20467;-72
2021/03/05 05:50:57;;;;;;;7.90;6.70;;;5.60;81.80;;;;;;5095522;28;20440;-72
2021/03/05 05:53:27;;;;;;;9.30;5.80;;;5.60;82.10;;;;;;5095518;28;20493;-71
2021/03/05 05:55:54;;;;;;;10.57;6.20;;;5.50;81.50;;;;;;5095487;28;20470;-72
2021/03/05 05:58:20;;;;;;;6.50;5.77;;;5.50;80.50;;;;;;5095054;28;20452;-72
2021/03/05 06:00:46;;;;;;;7.20;6.47;;;5.50;81.10;;;;;;5095649;28;20436;-72
2021/03/05 06:03:14;;;;;;;8.53;6.03;;;5.50;81.20;;;;;;5095297;28;20451;-71
2021/03/05 06:05:41;;;;;;;6.20;5.60;;;5.40;80.90;;;;;;5095108;28;20502;-71
2021/03/05 06:08:08;;;;;;;6.97;5.27;;;5.40;80.80;;;;;;5095135;28;20439;-71
2021/03/05 06:10:35;;;;;;;5.67;5.10;;;5.40;80.60;;;;;;5095170;28;20459;-71
2021/03/05 06:13:03;;;;;;;8.20;5.33;;;5.40;80.50;;;;;;5094826;28;20972;-71
2021/03/05 06:15:29;;;;;;;6.90;5.40;;;5.30;80.40;;;;;;5095034;28;20439;-71
2021/03/05 06:17:56;;;;;;;6.87;5.00;;;5.30;79.80;;;;;;5095315;28;20475;-71
2021/03/05 06:20:22;;;;;;;7.73;5.13;;;5.30;79.30;;;;;;5094987;28;20435;-72
2021/03/05 06:23:09;;;;;;;6.03;5.50;;;5.20;79.00;;;;;;5094686;28;20432;-71
2021/03/05 06:25:35;;;;;;;6.37;4.87;;;5.20;78.60;;;;;;5094882;28;20482;-71
2021/03/05 06:28:12;;;;;;;6.70;4.83;;;5.10;80.10;;;;;;5094508;28;20473;-72
2021/03/05 06:30:39;;;;;;;6.63;5.53;;;5.20;79.30;;;;;;5094875;28;20481;-70
2021/03/05 06:33:22;;;;;;;5.87;5.10;;;5.20;79.60;;;;;;5095024;28;20426;-71
2021/03/05 06:35:48;;;;;;;6.90;4.70;;;5.20;79.40;;;;;;5094689;28;20491;-72
2021/03/05 06:38:38;;;;;;;5.30;4.80;;;5.10;78.40;;;;;;5094614;28;20515;-72
2021/03/05 06:41:22;;;;;;;6.57;5.10;;;5.20;78.10;;;;;;5097528;28;20428;-71
2021/03/05 06:43:51;;;;;;;12.20;5.50;;;5.00;77.80;;;;;;5094113;28;20424;-71
2021/03/05 06:46:35;;;;;;;7.77;5.40;;;5.00;77.80;;;;;;5095135;28;20471;-71
2021/03/05 06:49:04;;;;;;;8.20;4.97;;;4.90;78.00;;;;;;5094952;28;20464;-71
2021/03/05 06:51:30;;;;;;;11.70;4.97;;;4.80;78.20;;;;;;5094510;28;20424;-71
2021/03/05 06:54:17;;;;;;;6.03;5.00;;;4.90;78.80;;;;;;5094453;28;20454;-71
2021/03/05 06:56:47;;;;;;;5.80;5.20;;;4.90;79.10;;;;;;5089120;28;20508;-71
2021/03/05 06:59:16;;;;;;;6.50;5.20;;;4.90;78.60;;;;;;5094320;28;20424;-71
2021/03/05 07:01:48;;;;;;;5.90;4.37;;;4.90;78.70;;;;;;5094492;28;20440;-71
2021/03/05 07:04:16;;;;;;;10.37;5.73;;;4.90;78.90;;;;;;5094139;28;20480;-71
2021/03/05 07:06:43;;;;;;;9.27;5.43;;;4.90;78.90;;;;;;5093856;28;20471;-71
2021/03/05 07:09:10;;;;;;;6.43;4.73;;;4.90;78.80;;;;;;5093935;28;20475;-71
2021/03/05 07:11:39;;;;;;;8.20;6.10;;;4.90;78.90;;;;;;5095312;28;20930;-71
2021/03/05 07:14:07;;;;;;;6.73;5.17;;;4.90;78.80;;;;;;5093914;28;20936;-71
2021/03/05 07:16:43;;;;;;;7.70;5.00;;;5.00;78.80;;;;;;5093940;28;20456;-71
2021/03/05 07:19:10;;;;;;;11.30;5.20;;;5.00;78.90;;;;;;5093973;28;20473;-71
2021/03/05 07:21:39;;;;;;;7.73;5.20;;;5.00;78.60;;;;;;5093921;28;20444;-71
2021/03/05 07:24:10;;;;;;;7.30;5.37;;;5.10;78.40;;;;;;5093850;28;20439;-71
2021/03/05 07:26:43;;;;;;;6.43;5.70;;;5.10;78.00;;;;;;5093446;28;20475;-71
2021/03/05 07:29:17;;;;;;;6.30;4.97;;;5.10;77.80;;;;;;5093451;28;20991;-71
2021/03/05 07:31:45;;;;;;;8.73;5.20;;;5.10;77.80;;;;;;5093762;28;20477;-71
2021/03/05 07:34:16;;;;;;;8.90;4.57;;;5.10;77.90;;;;;;5093727;28;20444;-71
2021/03/05 07:36:48;;;;;;;11.03;5.17;;;5.10;77.60;;;;;;5093820;28;20503;-71
2021/03/05 07:39:21;;;;;;;14.20;5.23;;;5.20;77.70;;;;;;5093647;28;20461;-71
2021/03/05 07:41:51;;;;;;;8.90;4.43;;;5.30;77.70;;;;;;5093661;28;20439;-71
2021/03/05 07:44:18;;;;;;;9.13;5.50;;;5.40;77.80;;;;;;5093837;28;20912;-71
2021/03/05 07:46:46;;;;;;;7.40;5.10;;;5.50;76.00;;;;;;5093498;28;20470;-71
2021/03/05 07:49:13;;;;;;;7.23;5.20;;;5.50;76.50;;;;;;5093497;28;20478;-72
2021/03/05 07:51:40;;;;;;;8.13;4.80;;;5.60;76.90;;;;;;5093246;28;20928;-72
2021/03/05 07:54:07;;;;;;;9.23;4.87;;;5.60;76.90;;;;;;5093483;28;20521;-71
2021/03/05 07:56:40;;;;;;;5.10;4.40;;;5.60;75.30;;;;;;5095018;28;20470;-72
2021/03/05 07:59:07;;;;;;;5.53;3.83;;;5.60;74.30;;;;;;5097455;28;20428;-72
2021/03/05 08:01:57;;;;;;;6.10;4.73;;;5.60;74.40;;;;;;5097633;28;20435;-73
2021/03/05 08:04:23;;;;;;;8.37;5.10;;;5.60;74.40;;;;;;5097368;28;20454;-72
2021/03/05 08:07:09;;;;;;;8.53;4.80;;;5.60;73.90;;;;;;5097075;28;20487;-71
2021/03/05 08:09:37;;;;;;;6.73;4.70;;;5.60;74.70;;;;;;5097201;28;21017;-71
2021/03/05 08:12:31;;;;;;;8.97;5.00;;;5.60;75.00;;;;;;5097452;28;20956;-71
2021/03/05 08:15:24;;;;;;;7.77;4.93;;;5.70;75.00;;;;;;5097510;28;20489;-71
2021/03/05 08:17:53;;;;;;;8.53;5.03;;;5.70;74.10;;;;;;5097692;28;20427;-71
2021/03/05 08:20:59;;;;;;;7.50;4.40;;;5.70;74.50;;;;;;5098357;28;20439;-72
2021/03/05 08:23:25;;;;;;;6.47;5.00;;;5.70;73.90;;;;;;5093151;28;20516;-71
2021/03/05 08:25:53;;;;;;;9.23;4.90;;;5.80;73.60;;;;;;5097836;28;20459;-71
2021/03/05 08:28:37;;;;;;;6.17;4.67;;;5.80;74.40;;;;;;5097355;28;20443;-71
2021/03/05 08:31:36;;;;;;;5.33;4.57;;;5.80;73.40;;;;;;5097772;28;20444;-71
2021/03/05 08:34:25;;;;;;;7.10;5.70;;;5.90;73.10;;;;;;5097469;28;20440;-71
2021/03/05 08:36:52;;;;;;;6.47;3.73;;;5.90;73.60;;;;;;5096836;28;20885;-71
2021/03/05 08:39:30;;;;;;;13.97;8.13;;;5.80;74.00;;;;;;5081755;28;20946;-72
2021/03/05 08:42:28;;;;;;;5.03;4.30;;;5.80;72.70;;;;;;5076575;28;20446;-71
2021/03/05 08:45:23;;;;;;;4.23;3.70;;;5.80;72.80;;;;;;5076619;28;20429;-71
2021/03/05 08:47:51;;;;;;;4.93;3.47;;;5.90;73.80;;;;;;5041013;28;20459;-71
2021/03/05 08:50:19;;;;;;;4.13;2.67;;;5.90;73.90;;;;;;5076374;28;20491;-71
2021/03/05 08:52:47;;;;;;;4.77;3.23;;;6.00;72.90;;;;;;5076558;28;20436;-72
2021/03/05 08:55:15;;;;;;;5.43;2.70;;;6.00;72.80;;;;;;5076405;28;20664;-71
2021/03/05 08:57:43;;;;;;;2.70;2.43;;;6.00;72.00;;;;;;5076400;28;20472;-71
2021/03/05 09:00:14;;;;;;;4.00;2.30;;;6.00;71.40;;;;;;5076356;28;20452;-71
2021/03/05 09:02:41;;;;;;;3.27;2.20;;;6.00;71.20;;;;;;5076008;28;20521;-72
2021/03/05 09:05:08;;;;;;;2.83;2.00;;;6.00;69.80;;;;;;5076058;28;20456;-72
2021/03/05 09:07:46;;;;;;;2.70;1.83;;;6.00;71.30;;;;;;5075805;28;20468;-71
2021/03/05 09:10:13;;;;;;;4.10;2.30;;;6.00;71.40;;;;;;5075733;28;20483;-71
2021/03/05 09:12:53;;;;;;;5.23;2.23;;;6.10;69.80;;;;;;5075783;28;20937;-72
2021/03/05 09:15:20;;;;;;;3.60;2.10;;;6.10;70.20;;;;;;5075682;28;20428;-72
2021/03/05 09:17:46;;;;;;;3.70;2.60;;;6.20;70.20;;;;;;5075983;28;20444;-71
2021/03/05 09:20:13;;;;;;;6.47;2.67;;;6.30;71.10;;;;;;5076017;28;20437;-71
2021/03/05 09:22:39;;;;;;;3.63;2.40;;;6.30;71.40;;;;;;5075850;28;20448;-71
2021/03/05 09:25:10;;;;;;;7.43;2.83;;;6.40;70.80;;;;;;5075975;28;20432;-71
2021/03/05 09:27:37;;;;;;;3.30;2.17;;;6.40;69.90;;;;;;5075691;28;20568;-71
2021/03/05 09:30:14;;;;;;;4.43;2.60;;;6.50;69.00;;;;;;5075696;28;20474;-71
2021/03/05 09:32:49;;;;;;;5.47;2.43;;;6.50;68.80;;;;;;5075698;28;20436;-71
2021/03/05 09:35:16;;;;;;;4.43;2.70;;;6.60;68.40;;;;;;5075766;28;20425;-71
2021/03/05 09:37:42;;;;;;;6.50;2.10;;;6.60;68.10;;;;;;5075442;28;20867;-71
2021/03/05 09:40:10;;;;;;;5.27;2.20;;;6.60;66.90;;;;;;5075760;28;20421;-71
2021/03/05 09:42:45;;;;;;;3.40;2.10;;;6.70;68.50;;;;;;5075617;28;20425;-71
2021/03/05 09:45:12;;;;;;;3.57;2.63;;;6.80;66.80;;;;;;5075536;28;20812;-71
2021/03/05 09:47:48;;;;;;;3.70;2.30;;;6.90;65.80;;;;;;5075413;28;20487;-71
2021/03/05 09:50:19;;;;;;;4.83;1.90;;;6.90;64.80;;;;;;5075314;28;20547;-71
2021/03/05 09:52:46;;;;;;;3.50;2.47;;;7.00;66.30;;;;;;5075124;28;20448;-71
2021/03/05 09:55:24;;;;;;;3.03;1.93;;;7.00;65.20;;;;;;5075354;28;20432;-71
2021/03/05 09:57:50;;;;;;;2.53;1.80;;;7.10;62.40;;;;;;5075372;28;20468;-70
2021/03/05 10:00:30;;;;;;;5.40;2.50;;;7.20;64.40;;;;;;5075399;28;20429;-71
2021/03/05 10:03:05;;;;;;;2.80;2.30;;;7.30;62.80;;;;;;5074926;28;20902;-71
2021/03/05 10:05:32;;;;;;;3.60;2.00;;;7.50;64.50;;;;;;5074798;28;20452;-72
2021/03/05 10:07:58;;;;;;;5.37;2.90;;;7.60;63.60;;;;;;5074979;28;20445;-71
2021/03/05 10:10:25;;;;;;;2.60;2.10;;;7.80;64.10;;;;;;5074953;28;20485;-72
2021/03/05 10:12:53;;;;;;;4.87;2.70;;;8.00;63.60;;;;;;5075006;28;20447;-73
2021/03/05 10:15:19;;;;;;;3.40;2.23;;;8.10;58.80;;;;;;5074934;28;20494;-72
2021/03/05 10:17:45;;;;;;;4.30;2.80;;;8.30;59.80;;;;;;5074869;28;20448;-72
2021/03/05 10:20:12;;;;;;;2.93;2.10;;;8.50;59.00;;;;;;5074113;28;20514;-72
2021/03/05 10:22:38;;;;;;;6.77;2.87;;;8.80;57.60;;;;;;5074863;28;20453;-72
2021/03/05 10:25:07;;;;;;;2.80;1.83;;;9.10;58.00;;;;;;5074449;28;20977;-72
2021/03/05 10:27:41;;;;;;;7.90;3.40;;;9.60;56.50;;;;;;5074599;28;20826;-72
2021/03/05 10:30:08;;;;;;;4.70;2.73;;;9.90;55.10;;;;;;5074289;28;20889;-72
2021/03/05 10:32:38;;;;;;;8.20;2.47;;;10.30;52.70;;;;;;5074603;28;20440;-73
2021/03/05 10:35:09;;;;;;;4.57;2.57;;;10.70;51.50;;;;;;5074578;28;20434;-72
2021/03/05 10:37:36;;;;;;;2.80;2.00;;;11.20;50.00;;;;;;5074428;28;20480;-72
2021/03/05 10:40:04;;;;;;;2.80;2.33;;;11.60;48.90;;;;;;5074444;28;20463;-72
2021/03/05 10:42:32;;;;;;;2.83;1.97;;;12.10;49.00;;;;;;5074609;28;20422;-72
2021/03/05 10:45:00;;;;;;;4.73;3.03;;;12.50;44.30;;;;;;5073871;28;20497;-72
2021/03/05 10:47:26;;;;;;;3.77;1.77;;;13.00;44.40;;;;;;5074148;28;20465;-72
2021/03/05 10:49:52;;;;;;;3.77;2.80;;;13.50;42.60;;;;;;5074080;28;20584;-73
2021/03/05 10:52:22;;;;;;;4.73;2.27;;;13.90;41.90;;;;;;5074108;28;20445;-71
2021/03/05 10:54:50;;;;;;;3.27;2.17;;;14.50;40.50;;;;;;5074052;28;20453;-71
2021/03/05 10:57:17;;;;;;;2.80;2.27;;;15.00;40.00;;;;;;5073987;28;20468;-72
2021/03/05 10:59:44;;;;;;;4.07;2.83;;;15.50;39.60;;;;;;5074068;28;20504;-72
2021/03/05 11:02:11;;;;;;;2.60;2.00;;;16.00;36.70;;;;;;5073960;28;20445;-72
2021/03/05 11:04:38;;;;;;;3.30;2.17;;;16.40;35.00;;;;;;5073957;28;20441;-72
2021/03/05 11:07:04;;;;;;;2.20;2.00;;;16.70;34.40;;;;;;5073566;28;21015;-72
2021/03/05 11:09:31;;;;;;;3.00;2.20;;;17.10;35.00;;;;;;5073507;28;20864;-73
2021/03/05 11:11:59;;;;;;;4.97;2.50;;;17.50;35.40;;;;;;5073900;28;20471;-72
2021/03/05 11:14:26;;;;;;;3.40;2.50;;;18.00;33.80;;;;;;5073802;28;20433;-71
2021/03/05 11:16:53;;;;;;;4.70;1.97;;;18.50;32.60;;;;;;5073677;28;20468;-71
2021/03/05 11:19:20;;;;;;;2.70;2.17;;;18.90;32.40;;;;;;5073436;28;20919;-72
2021/03/05 11:21:47;;;;;;;1.70;1.60;;;19.30;31.20;;;;;;5073653;28;20432;-71
2021/03/05 11:24:13;;;;;;;3.53;1.80;;;19.60;30.70;;;;;;5073442;28;20436;-71
2021/03/05 11:26:39;;;;;;;3.50;1.90;;;19.90;29.60;;;;;;5073590;28;20473;-71
2021/03/05 11:29:07;;;;;;;1.87;1.70;;;20.20;28.90;;;;;;5073559;28;20468;-72
2021/03/05 11:31:33;;;;;;;2.50;1.80;;;20.40;28.40;;;;;;5073521;28;20494;-71
2021/03/05 11:33:59;;;;;;;1.80;1.70;;;20.50;27.90;;;;;;5073575;28;20506;-72
2021/03/05 11:36:27;;;;;;;2.57;1.90;;;20.70;27.30;;;;;;5073467;28;20464;-72
2021/03/05 11:38:55;;;;;;;3.70;1.90;;;20.90;26.70;;;;;;5073537;28;20425;-71
2021/03/05 11:41:22;;;;;;;1.70;1.40;;;21.10;27.60;;;;;;5073421;28;20433;-72
2021/03/05 11:43:50;;;;;;;2.30;1.60;;;21.40;26.80;;;;;;5073456;28;20547;-72
2021/03/05 11:46:18;;;;;;;2.20;1.50;;;21.60;25.40;;;;;;5073346;28;20465;-72
2021/03/05 11:48:46;;;;;;;1.30;1.20;;;21.80;26.40;;;;;;5074140;28;20484;-72
2021/03/05 11:51:12;;;;;;;1.90;1.20;;;22.00;25.20;;;;;;5073328;28;20819;-72
2021/03/05 11:53:39;;;;;;;1.97;1.20;;;22.20;24.80;;;;;;5073317;28;20445;-71
2021/03/05 11:56:06;;;;;;;1.20;0.80;;;22.50;25.30;;;;;;5073284;28;20465;-72
2021/03/05 11:58:33;;;;;;;1.67;1.47;;;22.70;24.30;;;;;;5074226;28;20421;-72
2021/03/05 12:00:59;;;;;;;2.33;1.20;;;23.00;23.70;;;;;;5073049;28;20965;-72
2021/03/05 12:03:26;;;;;;;1.90;1.43;;;23.20;24.40;;;;;;5073123;28;20440;-72
2021/03/05 12:05:52;;;;;;;2.77;1.43;;;23.50;24.20;;;;;;5073055;28;20484;-72
2021/03/05 12:08:18;;;;;;;1.30;1.20;;;23.70;23.70;;;;;;5073236;28;20475;-72
2021/03/05 12:10:45;;;;;;;4.23;1.17;;;24.10;23.80;;;;;;5072903;28;20483;-72
2021/03/05 12:13:11;;;;;;;5.47;1.50;;;24.40;22.90;;;;;;5073225;28;20440;-72
2021/03/05 12:15:38;;;;;;;1.50;1.10;;;24.60;22.80;;;;;;5073192;28;20437;-72
2021/03/05 12:18:05;;;;;;;1.17;0.93;;;24.70;22.20;;;;;;5072866;28;20793;-72
2021/03/05 12:20:31;;;;;;;1.07;0.80;;;25.00;22.90;;;;;;5073143;28;20429;-73
2021/03/05 12:22:57;;;;;;;1.30;0.97;;;25.30;22.10;;;;;;5073539;28;20787;-72
2021/03/05 12:25:24;;;;;;;3.73;1.50;;;25.60;22.00;;;;;;5073054;28;20443;-72
2021/03/05 12:27:51;;;;;;;2.27;0.90;;;26.00;22.50;;;;;;5073175;28;20437;-72
2021/03/05 12:30:18;;;;;;;2.30;1.20;;;26.30;21.10;;;;;;5072660;28;20849;-72
2021/03/05 12:32:44;;;;;;;2.33;1.00;;;26.60;20.40;;;;;;5073126;28;20433;-72
2021/03/05 12:35:12;;;;;;;1.30;0.90;;;26.80;19.90;;;;;;5073265;28;20479;-72
2021/03/05 12:37:39;;;;;;;1.73;0.80;;;27.00;20.10;;;;;;5072765;28;20835;-72
2021/03/05 12:40:07;;;;;;;1.43;0.87;;;27.20;20.00;;;;;;5072952;28;20445;-72
2021/03/05 12:42:34;;;;;;;2.20;0.83;;;27.10;19.00;;;;;;5074721;28;20454;-72
2021/03/05 12:45:01;;;;;;;1.27;1.03;;;27.20;19.40;;;;;;5076891;28;20447;-72
2021/03/05 12:47:28;;;;;;;1.77;0.93;;;27.40;18.60;;;;;;5076461;28;20563;-73
2021/03/05 12:49:54;;;;;;;1.67;0.93;;;27.60;18.90;;;;;;5076491;28;20521;-73
2021/03/05 12:52:20;;;;;;;1.20;1.10;;;27.60;17.50;;;;;;5076538;28;20459;-73
2021/03/05 12:54:46;;;;;;;2.27;1.10;;;27.70;18.80;;;;;;5076438;28;20455;-72
2021/03/05 12:57:12;;;;;;;1.07;0.97;;;27.90;19.20;;;;;;5075933;28;20926;-72